Time;durP1;ratioP1;P1;durP2;ratioP2;P2;SDS_P1;SDS_P2;PMS_P1;PMS_P2;Temp;Humidity;BMP_temperature;BMP_pressure;BME280_temperature;BME280_humidity;BME280_pressure;Samples;Min_cycle;Max_cycle;Signal;HPM_P1;HPM_P2
2022/05/21 00:00:28;;;;;;;6.70;4.30;;;20.10;99.90;;;;;;4998946;28;20439;-68
2022/05/21 00:02:54;;;;;;;5.33;4.83;;;20.10;99.90;;;;;;4996859;28;20446;-68
2022/05/21 00:05:22;;;;;;;7.37;5.27;;;20.20;99.90;;;;;;4997510;28;20444;-68
2022/05/21 00:07:47;;;;;;;6.00;5.20;;;20.10;99.90;;;;;;4995255;28;20457;-68
2022/05/21 00:10:15;;;;;;;5.73;5.10;;;20.10;99.90;;;;;;4998449;28;20964;-68
2022/05/21 00:12:42;;;;;;;5.10;4.60;;;20.00;99.90;;;;;;4997487;28;20328;-67
2022/05/21 00:15:10;;;;;;;8.23;5.10;;;20.00;99.90;;;;;;4997301;28;20883;-68
2022/05/21 00:17:36;;;;;;;4.80;4.30;;;19.90;99.90;;;;;;4994126;28;20480;-67
2022/05/21 00:20:03;;;;;;;5.00;4.50;;;20.00;99.90;;;;;;4996693;28;20547;-68
2022/05/21 00:22:29;;;;;;;5.00;4.60;;;20.00;99.90;;;;;;4998623;28;20435;-67
2022/05/21 00:24:55;;;;;;;6.53;4.70;;;19.90;99.90;;;;;;5000348;28;20444;-67
2022/05/21 00:27:20;;;;;;;5.43;4.57;;;19.90;99.90;;;;;;5001968;28;20208;-67
2022/05/21 00:29:46;;;;;;;5.10;4.60;;;19.80;99.90;;;;;;5001705;28;20197;-67
2022/05/21 00:32:11;;;;;;;5.90;5.23;;;19.80;99.90;;;;;;4999801;28;20181;-67
2022/05/21 00:34:37;;;;;;;7.70;4.60;;;19.80;99.90;;;;;;5001764;28;20184;-68
2022/05/21 00:37:03;;;;;;;7.50;5.30;;;19.70;99.90;;;;;;5000104;28;20224;-68
2022/05/21 00:39:29;;;;;;;5.47;4.40;;;19.60;99.90;;;;;;5000038;28;20187;-68
2022/05/21 00:41:55;;;;;;;8.00;4.90;;;19.60;99.90;;;;;;4999798;28;20522;-67
2022/05/21 00:44:21;;;;;;;7.67;4.60;;;19.50;99.90;;;;;;4997186;28;20476;-65
2022/05/21 00:46:48;;;;;;;7.07;4.50;;;19.40;99.90;;;;;;4999840;28;20298;-65
2022/05/21 00:49:21;;;;;;;4.97;4.57;;;19.30;99.90;;;;;;4999684;28;20215;-65
2022/05/21 00:51:55;;;;;;;5.70;4.53;;;19.30;99.90;;;;;;5001855;28;20529;-65
2022/05/21 00:54:26;;;;;;;5.60;4.80;;;19.20;99.90;;;;;;4996729;28;20475;-65
2022/05/21 00:56:57;;;;;;;5.90;5.30;;;19.20;99.90;;;;;;5000437;28;20468;-65
2022/05/21 01:02:11;;;;;;;5.80;5.20;;;19.10;99.90;;;;;;5000946;28;21063;-66
2022/05/21 01:04:37;;;;;;;5.30;4.60;;;19.10;99.90;;;;;;5001972;28;20444;-66
2022/05/21 01:07:05;;;;;;;5.37;4.87;;;18.90;99.90;;;;;;5000063;28;20451;-66
2022/05/21 01:09:32;;;;;;;6.10;4.57;;;18.90;99.90;;;;;;4998178;28;20463;-66
2022/05/21 01:11:59;;;;;;;5.50;4.67;;;18.90;99.90;;;;;;4998964;28;20448;-67
2022/05/21 01:14:25;;;;;;;5.23;4.73;;;18.90;99.90;;;;;;4996746;28;20441;-66
2022/05/21 01:16:51;;;;;;;6.20;4.53;;;18.80;99.90;;;;;;4998212;28;20501;-66
2022/05/21 01:19:18;;;;;;;4.50;4.10;;;18.80;99.90;;;;;;4997956;28;20280;-66
2022/05/21 01:21:43;;;;;;;5.93;5.40;;;18.80;99.90;;;;;;5000102;28;20447;-66
2022/05/21 01:24:11;;;;;;;7.33;4.77;;;18.70;99.90;;;;;;4999372;28;20432;-66
2022/05/21 01:26:39;;;;;;;4.53;4.13;;;18.70;99.90;;;;;;4998448;28;20201;-66
2022/05/21 01:29:12;;;;;;;4.60;4.20;;;18.70;99.90;;;;;;4998103;28;20440;-66
2022/05/21 01:31:38;;;;;;;5.50;5.00;;;18.70;99.90;;;;;;5002041;28;20436;-65
2022/05/21 01:34:04;;;;;;;5.90;5.27;;;18.70;99.90;;;;;;5000232;28;21014;-65
2022/05/21 01:36:30;;;;;;;5.30;4.80;;;18.60;99.90;;;;;;5000210;28;20480;-66
2022/05/21 01:38:56;;;;;;;4.67;4.27;;;18.60;99.90;;;;;;5001260;28;20595;-65
2022/05/21 01:41:22;;;;;;;6.53;5.00;;;18.50;99.90;;;;;;5003584;28;20527;-66
2022/05/21 01:46:32;;;;;;;9.03;4.47;;;18.40;99.90;;;;;;5001290;28;20221;-66
2022/05/21 01:48:57;;;;;;;5.23;4.80;;;18.40;99.90;;;;;;5004224;28;20452;-65
2022/05/21 01:51:23;;;;;;;5.50;4.73;;;18.40;99.90;;;;;;5005688;28;20647;-66
2022/05/21 01:53:49;;;;;;;5.03;4.53;;;18.40;99.90;;;;;;5003612;28;20185;-65
2022/05/21 01:56:15;;;;;;;5.67;4.97;;;18.40;99.90;;;;;;5002588;28;20216;-66
2022/05/21 01:58:42;;;;;;;8.50;5.10;;;18.40;99.90;;;;;;5006255;28;20200;-65
2022/05/21 02:01:08;;;;;;;6.23;4.70;;;18.30;99.90;;;;;;5005673;28;20526;-65
2022/05/21 02:03:34;;;;;;;5.30;4.73;;;18.30;99.90;;;;;;5001857;28;21694;-66
2022/05/21 02:06:00;;;;;;;5.63;4.53;;;18.20;99.90;;;;;;5003969;28;20498;-66
2022/05/21 02:08:26;;;;;;;6.13;4.97;;;18.10;99.90;;;;;;5003073;28;20451;-66
2022/05/21 02:10:52;;;;;;;4.70;4.17;;;18.20;99.90;;;;;;5002578;28;20185;-66
2022/05/21 02:13:25;;;;;;;6.13;4.70;;;18.10;99.90;;;;;;4986539;28;20201;-66
2022/05/21 02:15:51;;;;;;;4.70;4.30;;;18.00;99.90;;;;;;5004445;28;20452;-66
2022/05/21 02:18:17;;;;;;;5.70;5.00;;;18.00;99.90;;;;;;5001005;28;20547;-66
2022/05/21 02:20:43;;;;;;;5.47;4.80;;;17.90;99.90;;;;;;4984490;28;20436;-66
2022/05/21 02:23:11;;;;;;;5.70;4.90;;;17.70;99.90;;;;;;5000348;28;20181;-65
2022/05/21 02:25:36;;;;;;;4.60;4.20;;;17.50;99.90;;;;;;5001351;28;20523;-66
2022/05/21 02:28:02;;;;;;;4.73;4.03;;;17.40;99.90;;;;;;5002133;28;21043;-66
2022/05/21 02:30:28;;;;;;;4.90;4.43;;;17.30;99.90;;;;;;4987654;28;20409;-67
2022/05/21 02:32:54;;;;;;;5.30;4.80;;;17.30;99.90;;;;;;5002349;28;20444;-66
2022/05/21 02:35:20;;;;;;;5.50;4.97;;;17.20;99.90;;;;;;5001397;28;20204;-66
2022/05/21 02:40:30;;;;;;;7.00;5.83;;;17.10;99.90;;;;;;4999101;28;20208;-66
2022/05/21 02:42:56;;;;;;;7.07;6.30;;;17.20;99.90;;;;;;5003687;28;20439;-66
2022/05/21 02:45:25;;;;;;;6.93;5.80;;;17.30;99.90;;;;;;5001486;28;20189;-66
2022/05/21 02:47:52;;;;;;;6.40;5.80;;;17.40;99.90;;;;;;5001051;28;20455;-66
2022/05/21 02:50:21;;;;;;;6.10;5.30;;;17.40;99.90;;;;;;5001880;28;20499;-66
2022/05/21 02:52:47;;;;;;;10.27;6.33;;;17.40;99.90;;;;;;5001506;28;20538;-66
2022/05/21 02:55:14;;;;;;;8.50;6.50;;;17.30;99.90;;;;;;4999213;28;20534;-66
2022/05/21 02:57:40;;;;;;;5.90;5.30;;;17.20;99.90;;;;;;4998613;28;20274;-66
2022/05/21 03:00:13;;;;;;;6.70;5.70;;;17.20;99.90;;;;;;5000333;28;20594;-66
2022/05/21 03:02:39;;;;;;;9.03;6.00;;;17.20;99.90;;;;;;5000327;28;20502;-65
2022/05/21 03:05:06;;;;;;;9.10;5.37;;;17.10;99.90;;;;;;5002310;28;20439;-66
2022/05/21 03:07:37;;;;;;;6.33;5.73;;;17.10;99.90;;;;;;5001702;28;20201;-66
2022/05/21 03:12:51;;;;;;;6.60;5.80;;;17.20;99.90;;;;;;4999961;28;20477;-66
2022/05/21 03:15:18;;;;;;;6.30;5.70;;;17.10;99.90;;;;;;5001587;28;20562;-67
2022/05/21 03:17:46;;;;;;;5.80;5.17;;;17.00;99.90;;;;;;5001193;28;20825;-66
2022/05/21 03:20:13;;;;;;;6.50;5.90;;;17.10;99.90;;;;;;5002704;28;20448;-66
2022/05/21 03:22:40;;;;;;;6.47;5.73;;;17.00;99.90;;;;;;5002501;28;20437;-65
2022/05/21 03:25:07;;;;;;;6.27;5.70;;;17.00;99.90;;;;;;4997817;28;20460;-65
2022/05/21 03:27:32;;;;;;;8.83;6.10;;;17.00;99.90;;;;;;4998804;28;20823;-66
2022/05/21 03:29:58;;;;;;;7.87;5.93;;;17.00;99.90;;;;;;5000302;28;20443;-65
2022/05/21 03:32:23;;;;;;;6.83;6.13;;;16.90;99.90;;;;;;5000444;28;20673;-65
2022/05/21 03:34:49;;;;;;;6.70;6.00;;;17.00;99.90;;;;;;4998972;28;20201;-66
2022/05/21 03:37:14;;;;;;;7.30;6.20;;;17.00;99.90;;;;;;5000530;28;21067;-66
2022/05/21 03:39:40;;;;;;;7.77;6.50;;;16.90;99.90;;;;;;5001095;28;20292;-66
2022/05/21 03:42:06;;;;;;;9.67;6.47;;;16.90;99.90;;;;;;4999870;28;20189;-66
2022/05/21 03:44:31;;;;;;;7.07;6.47;;;16.90;99.90;;;;;;5001073;28;20961;-66
2022/05/21 03:46:58;;;;;;;6.97;6.13;;;16.90;99.90;;;;;;5000430;28;20768;-66
2022/05/21 03:49:25;;;;;;;7.60;6.13;;;16.90;99.90;;;;;;5002620;28;20185;-66
2022/05/21 03:51:50;;;;;;;6.37;5.77;;;16.90;99.90;;;;;;5000878;28;20443;-66
2022/05/21 03:54:16;;;;;;;7.10;6.50;;;16.90;99.90;;;;;;4999897;28;21106;-66
2022/05/21 03:56:42;;;;;;;7.60;6.13;;;17.00;99.90;;;;;;5004168;28;20554;-66
2022/05/21 03:59:07;;;;;;;7.63;6.83;;;17.00;99.90;;;;;;4999460;28;20193;-66
2022/05/21 04:01:33;;;;;;;8.80;6.60;;;16.90;99.90;;;;;;5004078;28;20611;-66
2022/05/21 04:03:58;;;;;;;7.80;6.33;;;16.90;99.90;;;;;;4996842;28;20201;-66
2022/05/21 04:06:24;;;;;;;8.47;7.37;;;16.90;99.90;;;;;;4998625;28;20621;-66
2022/05/21 04:08:49;;;;;;;8.93;7.67;;;17.00;99.90;;;;;;5000744;28;20276;-66
2022/05/21 04:11:16;;;;;;;8.00;7.00;;;16.90;99.90;;;;;;4988674;28;20711;-66
2022/05/21 04:13:41;;;;;;;8.70;7.43;;;16.90;99.90;;;;;;4998905;28;20205;-66
2022/05/21 04:16:07;;;;;;;7.73;6.57;;;17.00;99.90;;;;;;5001223;28;20471;-66
2022/05/21 04:18:32;;;;;;;7.73;6.93;;;16.90;99.90;;;;;;5000873;28;20247;-66
2022/05/21 04:20:58;;;;;;;7.73;6.93;;;16.80;99.90;;;;;;4999097;28;20252;-67
2022/05/21 04:23:24;;;;;;;7.70;6.90;;;16.90;99.90;;;;;;5000855;28;20197;-66
2022/05/21 04:25:49;;;;;;;9.67;7.33;;;16.90;99.90;;;;;;5002124;28;20213;-66
2022/05/21 04:28:15;;;;;;;8.67;7.87;;;16.90;99.90;;;;;;5000831;28;20204;-66
2022/05/21 04:30:41;;;;;;;7.47;6.77;;;16.90;99.90;;;;;;5000712;28;20181;-66
2022/05/21 04:33:06;;;;;;;7.67;6.40;;;16.80;99.90;;;;;;4996219;28;20304;-66
2022/05/21 04:38:17;;;;;;;9.50;6.50;;;16.70;99.90;;;;;;4998288;28;20646;-66
2022/05/21 04:40:43;;;;;;;6.87;6.17;;;16.60;99.90;;;;;;4998781;28;20443;-66
2022/05/21 04:43:09;;;;;;;8.93;5.93;;;16.50;99.90;;;;;;4998197;28;20448;-66
2022/05/21 04:45:35;;;;;;;6.73;6.13;;;16.50;99.90;;;;;;4999880;28;20177;-67
2022/05/21 04:48:08;;;;;;;5.90;4.80;;;16.50;99.90;;;;;;4998973;28;21175;-66
2022/05/21 04:50:36;;;;;;;8.20;6.10;;;16.30;99.90;;;;;;4998515;28;20572;-66
2022/05/21 04:53:02;;;;;;;7.00;6.30;;;16.30;99.90;;;;;;5000186;28;20447;-66
2022/05/21 04:55:27;;;;;;;6.53;5.93;;;16.40;99.90;;;;;;5000550;28;20929;-66
2022/05/21 04:57:53;;;;;;;6.43;5.73;;;16.20;99.90;;;;;;4996962;28;20595;-66
2022/05/21 05:00:18;;;;;;;6.43;5.73;;;16.30;99.90;;;;;;4999680;28;20200;-66
2022/05/21 05:02:44;;;;;;;6.30;5.17;;;16.40;99.90;;;;;;4998264;28;20185;-66
2022/05/21 05:05:14;;;;;;;5.87;5.00;;;16.50;99.90;;;;;;4997084;28;20319;-67
2022/05/21 05:07:40;;;;;;;6.00;5.30;;;16.50;99.90;;;;;;5001182;28;20685;-66
2022/05/21 05:10:07;;;;;;;7.83;5.40;;;16.30;99.90;;;;;;4997298;28;20450;-66
2022/05/21 05:12:33;;;;;;;7.80;5.40;;;16.30;99.90;;;;;;4998471;28;20448;-67
2022/05/21 05:14:59;;;;;;;7.80;5.37;;;16.40;99.90;;;;;;4999508;28;20851;-66
2022/05/21 05:17:24;;;;;;;6.57;5.07;;;16.30;99.90;;;;;;4998530;28;20228;-67
2022/05/21 05:19:54;;;;;;;6.77;5.33;;;16.40;99.90;;;;;;4999002;28;20444;-66
2022/05/21 05:22:20;;;;;;;6.53;5.37;;;16.50;99.90;;;;;;4998748;28;20212;-66
2022/05/21 05:24:45;;;;;;;9.50;5.20;;;16.50;99.90;;;;;;4984461;28;20440;-66
2022/05/21 05:27:11;;;;;;;6.10;4.10;;;16.50;99.90;;;;;;4999596;28;20892;-66
2022/05/21 05:29:37;;;;;;;5.30;4.10;;;16.50;99.90;;;;;;5000057;28;20193;-66
2022/05/21 05:32:03;;;;;;;4.77;4.30;;;16.40;99.90;;;;;;4996869;28;20186;-66
2022/05/21 05:34:29;;;;;;;5.53;5.13;;;16.50;99.90;;;;;;4998998;28;20199;-66
2022/05/21 05:36:54;;;;;;;8.30;4.20;;;16.30;99.90;;;;;;4995599;28;20846;-66
2022/05/21 05:39:21;;;;;;;4.80;3.93;;;16.30;99.90;;;;;;4997258;28;20228;-66
2022/05/21 05:41:47;;;;;;;8.47;4.83;;;16.40;99.90;;;;;;4999019;28;20177;-66
2022/05/21 05:44:13;;;;;;;5.13;4.63;;;16.50;99.90;;;;;;4998156;28;20523;-65
2022/05/21 05:46:39;;;;;;;4.80;4.10;;;16.50;99.90;;;;;;5015315;22;20459;-75
2022/05/21 05:49:05;;;;;;;4.57;3.97;;;16.50;99.90;;;;;;4990413;28;20209;-75
2022/05/21 05:51:31;;;;;;;4.63;4.23;;;16.50;99.90;;;;;;4996281;28;20193;-75
2022/05/21 05:53:57;;;;;;;5.20;4.30;;;16.60;99.90;;;;;;4996175;28;20982;-75
2022/05/21 05:56:22;;;;;;;4.63;4.23;;;16.60;99.90;;;;;;4996483;28;20208;-75
2022/05/21 06:01:32;;;;;;;5.57;4.23;;;16.70;99.90;;;;;;4997936;28;21872;-74
2022/05/21 06:03:58;;;;;;;5.37;4.23;;;16.70;99.90;;;;;;4995088;28;20467;-76
2022/05/21 06:06:24;;;;;;;5.60;4.37;;;16.70;99.90;;;;;;4997427;28;20212;-76
2022/05/21 06:08:50;;;;;;;10.90;4.77;;;16.80;99.90;;;;;;4998444;28;20205;-75
2022/05/21 06:11:16;;;;;;;5.40;4.20;;;16.90;99.90;;;;;;4997147;28;20204;-74
2022/05/21 06:13:43;;;;;;;8.40;4.13;;;16.80;99.90;;;;;;4994760;28;20448;-71
2022/05/21 06:16:09;;;;;;;5.27;4.30;;;16.80;99.90;;;;;;4997478;28;20630;-71
2022/05/21 06:18:35;;;;;;;5.87;3.80;;;16.90;99.90;;;;;;4996610;28;20895;-71
2022/05/21 06:21:03;;;;;;;4.40;3.80;;;16.90;99.90;;;;;;4994067;28;20182;-71
2022/05/21 06:23:30;;;;;;;4.80;3.80;;;17.00;99.90;;;;;;4998794;28;20207;-72
2022/05/21 06:25:57;;;;;;;4.33;3.53;;;17.10;99.90;;;;;;4999290;28;20440;-70
2022/05/21 06:28:23;;;;;;;5.20;4.30;;;17.20;99.90;;;;;;4996890;28;20881;-71
2022/05/21 06:30:48;;;;;;;6.67;4.00;;;17.30;99.90;;;;;;5001087;28;20526;-72
2022/05/21 06:33:21;;;;;;;4.10;3.70;;;17.40;99.90;;;;;;4998809;28;20840;-73
2022/05/21 06:36:22;;;;;;;3.57;3.10;;;17.40;99.90;;;;;;5001456;28;20189;-72
2022/05/21 06:38:47;;;;;;;6.07;4.10;;;17.50;99.90;;;;;;4987186;28;20818;-72
2022/05/21 06:41:13;;;;;;;4.53;3.10;;;17.50;99.90;;;;;;5002554;28;20447;-71
2022/05/21 06:43:39;;;;;;;5.67;3.07;;;17.60;99.90;;;;;;5002917;28;20757;-72
2022/05/21 06:46:05;;;;;;;3.60;3.30;;;17.60;99.90;;;;;;4999986;28;20197;-71
2022/05/21 06:48:30;;;;;;;3.73;3.33;;;17.50;99.90;;;;;;4999732;28;20478;-76
2022/05/21 06:50:56;;;;;;;5.10;3.17;;;17.60;99.90;;;;;;5001997;28;20212;-79
2022/05/21 06:53:21;;;;;;;4.93;2.93;;;17.70;99.90;;;;;;5000628;28;20186;-76
2022/05/21 06:55:47;;;;;;;5.30;2.60;;;17.70;99.90;;;;;;4998888;28;20583;-76
2022/05/21 06:58:13;;;;;;;5.87;2.80;;;17.60;99.90;;;;;;4995628;28;20352;-73
2022/05/21 07:00:38;;;;;;;3.30;3.00;;;17.60;99.90;;;;;;5000373;28;20213;-76
2022/05/21 07:03:04;;;;;;;5.70;3.03;;;17.60;99.90;;;;;;4998052;28;20182;-73
2022/05/21 07:08:22;;;;;;;6.50;2.73;;;17.60;99.90;;;;;;5000045;28;20259;-73
2022/05/21 07:10:48;;;;;;;5.00;2.83;;;17.60;99.90;;;;;;4999418;28;21121;-71
2022/05/21 07:13:15;;;;;;;3.70;2.63;;;17.60;99.90;;;;;;4997313;28;20444;-73
2022/05/21 07:15:41;;;;;;;8.50;2.83;;;17.70;99.90;;;;;;4986248;28;20225;-73
2022/05/21 07:18:07;;;;;;;4.43;2.80;;;17.60;99.90;;;;;;4999991;28;20501;-74
2022/05/21 07:20:33;;;;;;;3.73;2.93;;;17.70;99.90;;;;;;4999173;28;20440;-73
2022/05/21 07:23:00;;;;;;;3.53;2.67;;;17.70;99.90;;;;;;4999685;28;20190;-73
2022/05/21 07:25:30;;;;;;;3.40;2.23;;;17.70;99.90;;;;;;4986591;28;20177;-72
2022/05/21 07:27:56;;;;;;;5.17;3.10;;;17.70;99.90;;;;;;4999664;28;20481;-72
2022/05/21 07:30:22;;;;;;;9.63;2.40;;;17.70;99.90;;;;;;4996955;28;20437;-73
2022/05/21 07:32:50;;;;;;;4.23;2.60;;;17.80;99.90;;;;;;4997859;28;20456;-72
2022/05/21 07:35:18;;;;;;;4.53;2.50;;;17.90;99.90;;;;;;4999709;28;20193;-73
2022/05/21 07:37:44;;;;;;;4.77;2.40;;;17.90;99.90;;;;;;5000763;28;20499;-74
2022/05/21 07:40:11;;;;;;;2.93;2.40;;;17.90;99.90;;;;;;4999069;28;20459;-74
2022/05/21 07:42:37;;;;;;;10.87;2.43;;;18.10;99.90;;;;;;4998692;28;20921;-73
2022/05/21 07:45:05;;;;;;;6.17;2.43;;;18.00;99.90;;;;;;4999202;28;20519;-75
2022/05/21 07:47:31;;;;;;;3.20;2.00;;;17.90;99.90;;;;;;4999183;28;20217;-75
2022/05/21 07:49:56;;;;;;;6.60;3.33;;;17.80;99.90;;;;;;4998081;28;20498;-74
2022/05/21 07:52:24;;;;;;;3.03;2.40;;;17.80;99.90;;;;;;4985947;28;20217;-75
2022/05/21 07:54:49;;;;;;;4.10;2.30;;;17.80;99.90;;;;;;5000372;28;20621;-74
2022/05/21 07:57:15;;;;;;;4.80;2.57;;;17.90;99.90;;;;;;4999620;28;20486;-75
2022/05/21 07:59:41;;;;;;;3.90;2.50;;;18.10;99.90;;;;;;4998763;28;20196;-74
2022/05/21 08:02:11;;;;;;;5.70;2.50;;;18.10;99.90;;;;;;4982940;28;20193;-70
2022/05/21 08:04:38;;;;;;;2.83;2.13;;;18.10;99.90;;;;;;4996102;28;20244;-73
2022/05/21 08:07:03;;;;;;;2.30;1.90;;;18.20;99.90;;;;;;5001881;28;20546;-72
2022/05/21 08:09:29;;;;;;;3.33;2.60;;;18.20;99.90;;;;;;5000569;28;20535;-74
2022/05/21 08:11:54;;;;;;;6.30;3.33;;;18.20;99.90;;;;;;4998982;28;20202;-74
2022/05/21 08:14:20;;;;;;;5.23;3.87;;;18.20;99.90;;;;;;4996158;28;20193;-73
2022/05/21 08:16:46;;;;;;;3.90;2.40;;;18.30;99.90;;;;;;4998756;28;20248;-74
2022/05/21 08:19:12;;;;;;;5.20;2.40;;;18.50;99.90;;;;;;5000458;28;20526;-70
2022/05/21 08:21:38;;;;;;;3.90;2.43;;;18.60;99.90;;;;;;5001225;28;20208;-72
2022/05/21 08:27:00;;;;;;;3.53;2.67;;;18.60;99.90;;;;;;4998459;28;20485;-76
2022/05/21 08:29:31;;;;;;;6.63;2.20;;;18.70;99.90;;;;;;4989682;28;20523;-75
2022/05/21 08:31:57;;;;;;;8.80;3.37;;;18.60;99.90;;;;;;4996010;28;20544;-75
2022/05/21 08:34:25;;;;;;;8.27;5.87;;;18.60;99.90;;;;;;4996704;28;20529;-74
2022/05/21 08:36:51;;;;;;;12.13;5.30;;;18.50;99.90;;;;;;4997668;28;20558;-74
2022/05/21 08:39:17;;;;;;;5.00;4.00;;;18.60;99.90;;;;;;4973579;28;21110;-72
2022/05/21 08:42:05;;;;;;;3.30;2.40;;;18.60;99.90;;;;;;4994270;28;20433;-74
2022/05/21 08:44:48;;;;;;;5.13;2.73;;;18.80;99.90;;;;;;4996285;28;20435;-74
2022/05/21 08:47:29;;;;;;;2.40;2.10;;;19.00;99.90;;;;;;4995801;28;20471;-74
2022/05/21 08:50:03;;;;;;;9.33;2.50;;;18.90;99.90;;;;;;4998061;28;20467;-73
2022/05/21 08:52:57;;;;;;;5.40;2.30;;;18.80;99.90;;;;;;4995939;28;20432;-73
2022/05/21 08:55:32;;;;;;;4.70;2.30;;;18.90;99.90;;;;;;4965618;28;21026;-73
2022/05/21 08:58:23;;;;;;;4.27;2.13;;;18.90;99.90;;;;;;4995676;28;20477;-74
2022/05/21 09:00:49;;;;;;;4.10;2.30;;;18.80;99.90;;;;;;4961225;28;20432;-70
2022/05/21 09:03:17;;;;;;;4.47;2.63;;;18.80;99.90;;;;;;4996707;28;20466;-71
2022/05/21 09:05:49;;;;;;;3.80;2.50;;;18.90;99.90;;;;;;4996080;28;20177;-71
2022/05/21 09:08:24;;;;;;;5.30;2.53;;;19.10;99.90;;;;;;4991623;28;20456;-71
2022/05/21 09:11:01;;;;;;;3.30;2.37;;;19.20;99.90;;;;;;4993512;28;20794;-71
2022/05/21 09:13:38;;;;;;;5.97;3.33;;;19.30;99.90;;;;;;4997072;28;20826;-70
2022/05/21 09:18:49;;;;;;;8.10;2.20;;;19.50;99.90;;;;;;4996201;28;20463;-70
2022/05/21 09:21:21;;;;;;;4.70;2.10;;;19.60;99.90;;;;;;4991511;28;20515;-70
2022/05/21 09:23:53;;;;;;;5.90;2.93;;;19.70;99.90;;;;;;4992601;28;20429;-70
2022/05/21 09:26:22;;;;;;;3.43;2.60;;;19.60;99.90;;;;;;4991011;28;21014;-69
2022/05/21 09:28:48;;;;;;;4.83;2.10;;;19.70;99.90;;;;;;4992927;28;20468;-70
2022/05/21 09:31:23;;;;;;;4.17;2.50;;;19.80;99.90;;;;;;4981954;28;20961;-70
2022/05/21 09:33:48;;;;;;;5.27;2.90;;;19.90;99.90;;;;;;4997569;28;20446;-70
2022/05/21 09:36:21;;;;;;;3.90;2.00;;;19.90;99.90;;;;;;4996607;28;20435;-72
2022/05/21 09:38:56;;;;;;;5.20;2.63;;;20.00;99.90;;;;;;4998031;28;20209;-75
2022/05/21 09:41:27;;;;;;;3.40;2.63;;;19.90;99.90;;;;;;4994490;28;20442;-72
2022/05/21 09:46:41;;;;;;;3.73;2.00;;;20.00;99.90;;;;;;4999661;28;20531;-73
2022/05/21 09:49:25;;;;;;;4.37;2.50;;;20.40;99.90;;;;;;4996213;28;20440;-75
2022/05/21 09:52:05;;;;;;;3.90;2.40;;;20.40;99.90;;;;;;4994312;28;20440;-71
2022/05/21 09:54:43;;;;;;;3.90;2.60;;;20.30;99.90;;;;;;4995513;28;20777;-75
2022/05/21 09:57:33;;;;;;;2.73;2.03;;;20.30;99.90;;;;;;4998223;28;20848;-72
2022/05/21 10:00:25;;;;;;;4.90;2.40;;;20.20;99.90;;;;;;5003386;28;20459;-75
2022/05/21 10:02:56;;;;;;;3.90;2.40;;;20.20;99.90;;;;;;5003759;28;20979;-71
2022/05/21 10:05:40;;;;;;;4.20;2.40;;;20.30;99.90;;;;;;5001661;28;20427;-72
2022/05/21 10:11:10;;;;;;;3.73;2.23;;;20.40;99.90;;;;;;5000339;28;20444;-71
2022/05/21 10:13:54;;;;;;;5.20;2.10;;;20.40;99.90;;;;;;4981992;28;21039;-70
2022/05/21 10:16:35;;;;;;;2.90;2.17;;;20.30;99.90;;;;;;5000371;28;20428;-70
2022/05/21 10:19:02;;;;;;;4.70;2.80;;;20.40;99.90;;;;;;5002885;28;20812;-69
2022/05/21 10:21:49;;;;;;;3.40;2.40;;;20.40;99.90;;;;;;5001542;28;20445;-69
2022/05/21 10:24:25;;;;;;;3.13;2.20;;;20.40;99.90;;;;;;5000419;28;20777;-71
2022/05/21 10:27:19;;;;;;;3.33;2.10;;;20.30;99.90;;;;;;4999902;28;20446;-77
2022/05/21 10:29:53;;;;;;;2.20;1.67;;;20.40;99.90;;;;;;4919174;28;20448;-79
2022/05/21 10:32:47;;;;;;;5.03;2.40;;;20.50;99.10;;;;;;5003903;28;20435;-79
2022/05/21 10:35:31;;;;;;;4.30;2.50;;;20.50;98.30;;;;;;5000861;28;20464;-80
2022/05/21 10:38:31;;;;;;;7.83;2.20;;;20.60;99.20;;;;;;5001379;28;20476;-81
2022/05/21 10:40:57;;;;;;;2.63;2.30;;;20.70;99.80;;;;;;4948039;28;20443;-75
2022/05/21 10:43:40;;;;;;;2.50;2.10;;;20.60;98.80;;;;;;5003613;28;21233;-78
2022/05/21 10:46:43;;;;;;;4.13;1.97;;;20.50;98.50;;;;;;5002554;28;20451;-77
2022/05/21 10:49:43;;;;;;;4.13;2.20;;;20.60;98.30;;;;;;5002786;28;21063;-76
2022/05/21 10:52:46;;;;;;;4.33;2.63;;;20.60;98.20;;;;;;5001548;28;20651;-76
2022/05/21 10:55:28;;;;;;;6.10;2.27;;;20.70;98.60;;;;;;5003714;28;20487;-80
2022/05/21 10:58:23;;;;;;;2.67;2.10;;;20.90;98.10;;;;;;4998577;28;20501;-73
2022/05/21 11:00:59;;;;;;;3.83;2.50;;;21.10;97.40;;;;;;5001515;28;20555;-79
2022/05/21 11:03:45;;;;;;;2.27;1.80;;;21.20;95.40;;;;;;5002804;28;20499;-79
2022/05/21 11:06:34;;;;;;;4.47;2.60;;;21.20;95.10;;;;;;5002567;28;20447;-78
2022/05/21 11:09:11;;;;;;;3.03;2.10;;;21.20;96.30;;;;;;5001110;28;20451;-78
2022/05/21 11:12:03;;;;;;;5.10;3.33;;;21.30;96.20;;;;;;5002748;28;20447;-78
2022/05/21 11:14:51;;;;;;;3.27;2.10;;;21.50;96.30;;;;;;5000738;28;20435;-78
2022/05/21 11:17:25;;;;;;;4.23;2.30;;;21.70;95.50;;;;;;5000213;28;20566;-78
2022/05/21 11:20:06;;;;;;;4.90;2.43;;;21.70;95.20;;;;;;5004972;28;20485;-78
2022/05/21 11:22:56;;;;;;;3.83;2.30;;;21.60;94.90;;;;;;5003052;28;20436;-77
2022/05/21 11:25:45;;;;;;;2.83;2.00;;;21.60;94.50;;;;;;4998449;28;20514;-77
2022/05/21 11:28:31;;;;;;;4.60;2.50;;;21.80;95.00;;;;;;4999819;28;20494;-76
2022/05/21 11:31:03;;;;;;;4.87;2.17;;;22.10;95.00;;;;;;5002878;28;20441;-75
2022/05/21 11:39:07;;;;;;;2.53;2.20;;;22.30;92.30;;;;;;5001860;28;20574;-76
2022/05/21 11:41:56;;;;;;;2.73;2.17;;;22.30;93.00;;;;;;4999132;28;20784;-75
2022/05/21 11:47:22;;;;;;;2.57;2.10;;;22.70;93.50;;;;;;4996378;28;20576;-75
2022/05/21 11:50:03;;;;;;;3.60;2.17;;;22.70;92.00;;;;;;4997592;28;20458;-76
2022/05/21 11:52:35;;;;;;;3.87;2.33;;;22.90;92.00;;;;;;5002091;28;20560;-75
2022/05/21 11:55:14;;;;;;;3.10;2.30;;;23.30;91.90;;;;;;5000687;28;20432;-79
2022/05/21 11:57:41;;;;;;;5.83;2.77;;;24.00;90.00;;;;;;5015214;22;20587;-70
2022/05/21 12:00:25;;;;;;;3.60;2.23;;;24.40;87.60;;;;;;4998894;28;20441;-69
2022/05/21 12:02:53;;;;;;;3.50;2.17;;;25.00;83.20;;;;;;4996238;28;20447;-68
2022/05/21 12:05:46;;;;;;;3.80;2.17;;;26.30;80.70;;;;;;4999501;28;20491;-69
2022/05/21 12:08:35;;;;;;;2.33;1.90;;;27.80;74.10;;;;;;4989378;28;20460;-69
2022/05/21 12:11:06;;;;;;;2.63;2.20;;;29.10;68.60;;;;;;4996834;28;20458;-68
2022/05/21 12:13:35;;;;;;;3.03;2.10;;;29.50;63.50;;;;;;4994011;28;20458;-66
2022/05/21 12:16:19;;;;;;;3.67;2.20;;;29.70;60.10;;;;;;4998514;28;20442;-66
2022/05/21 12:18:51;;;;;;;6.50;2.37;;;30.80;58.30;;;;;;4996517;28;20841;-67
2022/05/21 12:21:40;;;;;;;6.90;2.20;;;31.50;55.50;;;;;;4994748;28;20926;-66
2022/05/21 12:24:35;;;;;;;2.70;2.20;;;31.60;53.50;;;;;;4996825;28;20399;-68
2022/05/21 12:27:05;;;;;;;3.77;2.60;;;30.20;53.80;;;;;;4999663;28;20433;-68
2022/05/21 12:29:42;;;;;;;3.13;2.10;;;30.20;52.50;;;;;;5000059;28;20543;-68
2022/05/21 12:32:13;;;;;;;4.73;2.50;;;30.20;53.90;;;;;;4995801;28;20448;-68
2022/05/21 12:35:16;;;;;;;2.10;1.90;;;29.00;54.20;;;;;;4998608;28;20931;-67
2022/05/21 12:37:48;;;;;;;2.87;2.07;;;28.60;54.30;;;;;;4996308;28;20507;-68
2022/05/21 12:40:32;;;;;;;4.13;2.27;;;29.70;54.60;;;;;;4995281;28;20995;-68
2022/05/21 12:43:07;;;;;;;3.40;2.07;;;30.50;52.50;;;;;;4998053;28;20471;-67
2022/05/21 12:45:43;;;;;;;2.63;2.03;;;30.50;51.50;;;;;;4995871;28;20517;-68
2022/05/21 12:48:27;;;;;;;2.27;1.90;;;30.50;51.20;;;;;;4997796;28;20849;-69
2022/05/21 12:50:56;;;;;;;2.87;2.10;;;29.40;51.00;;;;;;4994980;28;20803;-68
2022/05/21 12:53:30;;;;;;;5.37;2.23;;;30.50;51.10;;;;;;4993495;28;20516;-70
2022/05/21 12:56:20;;;;;;;4.43;2.27;;;31.10;49.60;;;;;;4992727;28;20435;-67
2022/05/21 12:58:46;;;;;;;4.93;1.90;;;31.90;49.30;;;;;;4994556;28;20478;-68
2022/05/21 13:01:27;;;;;;;2.63;2.17;;;32.20;48.50;;;;;;4991214;28;20441;-69
2022/05/21 13:03:52;;;;;;;3.30;2.43;;;32.20;48.50;;;;;;4994754;28;20433;-69
2022/05/21 13:06:25;;;;;;;3.50;1.83;;;32.10;48.90;;;;;;4996294;28;20438;-67
2022/05/21 13:08:51;;;;;;;3.53;2.30;;;32.80;46.20;;;;;;4999009;28;20885;-69
2022/05/21 13:11:22;;;;;;;2.73;2.27;;;32.70;46.10;;;;;;4999164;28;20469;-68
2022/05/21 13:14:03;;;;;;;3.13;2.00;;;33.50;44.90;;;;;;4996206;28;20948;-68
2022/05/21 13:16:29;;;;;;;2.50;1.93;;;32.80;45.00;;;;;;4995131;28;20494;-68
2022/05/21 13:18:54;;;;;;;5.77;2.97;;;32.30;45.00;;;;;;5001097;28;20482;-68
2022/05/21 13:21:23;;;;;;;3.30;2.20;;;31.90;45.70;;;;;;4997751;28;20429;-70
2022/05/21 13:24:16;;;;;;;3.50;2.00;;;31.70;46.10;;;;;;4992258;28;20205;-69
2022/05/21 13:26:42;;;;;;;3.80;2.57;;;31.90;46.50;;;;;;4997032;28;20406;-71
2022/05/21 13:29:21;;;;;;;2.50;1.83;;;31.80;46.30;;;;;;4995825;28;20446;-68
2022/05/21 13:31:51;;;;;;;2.30;2.10;;;31.90;45.90;;;;;;4994250;28;20393;-69
2022/05/21 13:34:23;;;;;;;4.77;2.20;;;32.40;45.40;;;;;;4991984;28;20407;-68
2022/05/21 13:36:56;;;;;;;2.30;2.10;;;32.80;45.20;;;;;;4990882;28;20419;-68
2022/05/21 13:39:29;;;;;;;3.73;2.00;;;33.50;43.50;;;;;;4993423;28;20411;-68
2022/05/21 13:41:59;;;;;;;2.70;2.20;;;32.70;42.40;;;;;;4993154;28;20398;-68